sensor_id;sensor_type;location;lat;lon;timestamp;P1;durP1;ratioP1;P2;durP2;ratioP2
22486;SDS011;11410;53.046;10.512;2024-03-23T00:55:50;19.83;;;2.60;;
22486;SDS011;11410;53.046;10.512;2024-03-23T00:59:50;11.13;;;2.38;;
22486;SDS011;11410;53.046;10.512;2024-03-23T01:03:51;15.97;;;2.80;;
22486;SDS011;11410;53.046;10.512;2024-03-23T01:07:51;7.65;;;2.55;;
22486;SDS011;11410;53.046;10.512;2024-03-23T01:11:52;9.73;;;2.17;;
22486;SDS011;11410;53.046;10.512;2024-03-23T01:15:53;13.63;;;2.40;;
22486;SDS011;11410;53.046;10.512;2024-03-23T01:19:54;16.20;;;2.72;;
22486;SDS011;11410;53.046;10.512;2024-03-23T01:23:54;2.30;;;2.03;;
22486;SDS011;11410;53.046;10.512;2024-03-23T01:27:54;19.47;;;2.63;;
22486;SDS011;11410;53.046;10.512;2024-03-23T01:31:55;12.03;;;2.80;;
22486;SDS011;11410;53.046;10.512;2024-03-23T01:35:55;7.47;;;1.93;;
22486;SDS011;11410;53.046;10.512;2024-03-23T01:39:56;13.73;;;2.97;;
22486;SDS011;11410;53.046;10.512;2024-03-23T01:43:56;13.85;;;2.78;;
22486;SDS011;11410;53.046;10.512;2024-03-23T01:47:57;21.27;;;3.10;;
22486;SDS011;11410;53.046;10.512;2024-03-23T01:51:58;13.20;;;2.28;;
22486;SDS011;11410;53.046;10.512;2024-03-23T01:55:59;15.07;;;3.17;;
22486;SDS011;11410;53.046;10.512;2024-03-23T01:59:59;14.00;;;3.57;;
22486;SDS011;11410;53.046;10.512;2024-03-23T02:04:00;15.30;;;3.10;;
22486;SDS011;11410;53.046;10.512;2024-03-23T02:08:01;6.60;;;2.65;;
22486;SDS011;11410;53.046;10.512;2024-03-23T02:12:02;14.98;;;3.25;;
22486;SDS011;11410;53.046;10.512;2024-03-23T02:16:03;5.28;;;2.53;;
22486;SDS011;11410;53.046;10.512;2024-03-23T02:20:05;12.07;;;2.40;;
22486;SDS011;11410;53.046;10.512;2024-03-23T02:28:07;14.77;;;4.18;;
22486;SDS011;11410;53.046;10.512;2024-03-23T02:32:08;10.30;;;3.65;;
22486;SDS011;11410;53.046;10.512;2024-03-23T02:36:09;16.13;;;3.50;;
22486;SDS011;11410;53.046;10.512;2024-03-23T02:40:10;12.73;;;3.33;;
22486;SDS011;11410;53.046;10.512;2024-03-23T02:44:11;13.88;;;3.42;;
22486;SDS011;11410;53.046;10.512;2024-03-23T02:48:14;17.77;;;2.97;;
22486;SDS011;11410;53.046;10.512;2024-03-23T02:52:15;11.43;;;3.43;;
22486;SDS011;11410;53.046;10.512;2024-03-23T02:56:15;14.05;;;3.60;;
22486;SDS011;11410;53.046;10.512;2024-03-23T03:00:17;14.13;;;3.95;;
22486;SDS011;11410;53.046;10.512;2024-03-23T03:04:17;28.38;;;3.38;;
22486;SDS011;11410;53.046;10.512;2024-03-23T03:08:18;11.85;;;3.60;;
22486;SDS011;11410;53.046;10.512;2024-03-23T03:12:18;19.27;;;4.27;;
22486;SDS011;11410;53.046;10.512;2024-03-23T03:16:19;11.20;;;3.73;;
22486;SDS011;11410;53.046;10.512;2024-03-23T03:20:19;19.40;;;3.57;;
22486;SDS011;11410;53.046;10.512;2024-03-23T03:24:22;11.23;;;3.50;;
22486;SDS011;11410;53.046;10.512;2024-03-23T03:28:22;6.57;;;3.23;;
22486;SDS011;11410;53.046;10.512;2024-03-23T03:32:23;15.90;;;3.97;;
22486;SDS011;11410;53.046;10.512;2024-03-23T03:36:23;15.93;;;4.47;;
22486;SDS011;11410;53.046;10.512;2024-03-23T03:40:24;22.57;;;3.90;;
22486;SDS011;11410;53.046;10.512;2024-03-23T03:44:25;26.92;;;5.03;;
22486;SDS011;11410;53.046;10.512;2024-03-23T03:48:26;9.90;;;3.60;;
22486;SDS011;11410;53.046;10.512;2024-03-23T03:52:27;10.82;;;3.53;;
22486;SDS011;11410;53.046;10.512;2024-03-23T03:56:27;20.10;;;3.63;;
22486;SDS011;11410;53.046;10.512;2024-03-23T04:00:28;13.03;;;3.43;;
22486;SDS011;11410;53.046;10.512;2024-03-23T04:04:28;37.00;;;5.65;;
22486;SDS011;11410;53.046;10.512;2024-03-23T04:08:29;20.63;;;4.07;;
22486;SDS011;11410;53.046;10.512;2024-03-23T04:12:30;21.67;;;5.68;;
22486;SDS011;11410;53.046;10.512;2024-03-23T04:16:33;18.17;;;4.50;;
22486;SDS011;11410;53.046;10.512;2024-03-23T04:20:34;9.10;;;2.78;;
22486;SDS011;11410;53.046;10.512;2024-03-23T04:24:34;13.20;;;4.82;;
22486;SDS011;11410;53.046;10.512;2024-03-23T04:28:34;22.13;;;4.40;;
22486;SDS011;11410;53.046;10.512;2024-03-23T04:32:35;15.33;;;4.70;;
22486;SDS011;11410;53.046;10.512;2024-03-23T04:36:36;13.93;;;3.55;;
22486;SDS011;11410;53.046;10.512;2024-03-23T04:40:37;16.10;;;4.35;;
22486;SDS011;11410;53.046;10.512;2024-03-23T04:44:38;18.73;;;4.60;;
22486;SDS011;11410;53.046;10.512;2024-03-23T04:48:38;17.88;;;4.45;;
22486;SDS011;11410;53.046;10.512;2024-03-23T04:52:39;15.53;;;4.73;;
22486;SDS011;11410;53.046;10.512;2024-03-23T04:56:39;17.77;;;4.45;;
22486;SDS011;11410;53.046;10.512;2024-03-23T05:00:40;21.20;;;4.35;;
22486;SDS011;11410;53.046;10.512;2024-03-23T05:04:40;14.73;;;5.07;;
22486;SDS011;11410;53.046;10.512;2024-03-23T05:08:41;12.85;;;4.40;;
22486;SDS011;11410;53.046;10.512;2024-03-23T05:12:41;22.53;;;5.73;;
22486;SDS011;11410;53.046;10.512;2024-03-23T05:16:42;20.98;;;4.95;;
22486;SDS011;11410;53.046;10.512;2024-03-23T05:20:42;17.73;;;6.13;;
22486;SDS011;11410;53.046;10.512;2024-03-23T05:28:45;21.48;;;4.93;;
22486;SDS011;11410;53.046;10.512;2024-03-23T05:32:45;18.35;;;5.05;;
22486;SDS011;11410;53.046;10.512;2024-03-23T05:36:46;15.47;;;4.33;;
22486;SDS011;11410;53.046;10.512;2024-03-23T05:40:56;15.25;;;4.15;;
22486;SDS011;11410;53.046;10.512;2024-03-23T05:44:57;18.25;;;6.22;;
22486;SDS011;11410;53.046;10.512;2024-03-23T05:48:58;16.43;;;4.73;;
22486;SDS011;11410;53.046;10.512;2024-03-23T05:53:02;19.98;;;5.22;;
22486;SDS011;11410;53.046;10.512;2024-03-23T05:57:03;15.20;;;4.35;;
22486;SDS011;11410;53.046;10.512;2024-03-23T06:01:04;15.77;;;4.88;;
22486;SDS011;11410;53.046;10.512;2024-03-23T06:05:05;14.85;;;4.20;;
22486;SDS011;11410;53.046;10.512;2024-03-23T06:09:05;21.23;;;5.88;;
22486;SDS011;11410;53.046;10.512;2024-03-23T06:13:06;22.60;;;5.10;;
22486;SDS011;11410;53.046;10.512;2024-03-23T06:17:06;25.33;;;5.70;;
22486;SDS011;11410;53.046;10.512;2024-03-23T06:21:12;11.57;;;4.13;;
22486;SDS011;11410;53.046;10.512;2024-03-23T06:25:13;19.23;;;5.07;;
22486;SDS011;11410;53.046;10.512;2024-03-23T06:29:13;13.60;;;3.88;;
22486;SDS011;11410;53.046;10.512;2024-03-23T06:33:14;22.25;;;5.05;;
22486;SDS011;11410;53.046;10.512;2024-03-23T06:37:15;20.90;;;4.38;;
22486;SDS011;11410;53.046;10.512;2024-03-23T06:41:15;20.37;;;4.67;;
22486;SDS011;11410;53.046;10.512;2024-03-23T06:45:16;14.10;;;4.03;;
22486;SDS011;11410;53.046;10.512;2024-03-23T06:49:17;15.48;;;4.40;;
22486;SDS011;11410;53.046;10.512;2024-03-23T06:53:17;22.60;;;5.37;;
22486;SDS011;11410;53.046;10.512;2024-03-23T06:57:18;18.27;;;4.50;;
22486;SDS011;11410;53.046;10.512;2024-03-23T07:01:18;14.20;;;4.43;;
22486;SDS011;11410;53.046;10.512;2024-03-23T07:05:19;18.60;;;4.10;;
22486;SDS011;11410;53.046;10.512;2024-03-23T07:09:20;10.48;;;3.70;;
22486;SDS011;11410;53.046;10.512;2024-03-23T07:13:25;7.25;;;3.42;;
22486;SDS011;11410;53.046;10.512;2024-03-23T07:17:25;19.47;;;3.47;;
22486;SDS011;11410;53.046;10.512;2024-03-23T07:21:26;23.80;;;4.67;;
22486;SDS011;11410;53.046;10.512;2024-03-23T07:25:26;11.03;;;2.93;;
22486;SDS011;11410;53.046;10.512;2024-03-23T07:29:29;15.60;;;3.00;;
22486;SDS011;11410;53.046;10.512;2024-03-23T07:33:30;12.20;;;3.20;;
22486;SDS011;11410;53.046;10.512;2024-03-23T07:37:31;10.32;;;3.33;;
22486;SDS011;11410;53.046;10.512;2024-03-23T07:41:31;10.63;;;2.97;;
22486;SDS011;11410;53.046;10.512;2024-03-23T07:45:32;15.33;;;2.90;;
22486;SDS011;11410;53.046;10.512;2024-03-23T07:49:33;20.63;;;3.30;;
22486;SDS011;11410;53.046;10.512;2024-03-23T07:53:34;11.80;;;3.40;;
22486;SDS011;11410;53.046;10.512;2024-03-23T08:01:35;14.03;;;2.40;;
22486;SDS011;11410;53.046;10.512;2024-03-23T08:05:36;13.43;;;2.35;;
22486;SDS011;11410;53.046;10.512;2024-03-23T08:09:37;9.87;;;2.50;;
22486;SDS011;11410;53.046;10.512;2024-03-23T08:13:40;14.67;;;2.97;;
22486;SDS011;11410;53.046;10.512;2024-03-23T08:17:41;9.23;;;1.98;;
22486;SDS011;11410;53.046;10.512;2024-03-23T08:21:41;11.87;;;2.47;;
22486;SDS011;11410;53.046;10.512;2024-03-23T08:25:42;10.68;;;2.75;;
22486;SDS011;11410;53.046;10.512;2024-03-23T08:29:45;9.80;;;2.22;;
22486;SDS011;11410;53.046;10.512;2024-03-23T08:33:45;7.18;;;2.05;;
22486;SDS011;11410;53.046;10.512;2024-03-23T08:37:47;12.65;;;2.90;;
22486;SDS011;11410;53.046;10.512;2024-03-23T08:41:48;13.45;;;1.92;;
22486;SDS011;11410;53.046;10.512;2024-03-23T08:45:49;11.67;;;1.80;;
22486;SDS011;11410;53.046;10.512;2024-03-23T08:49:49;10.60;;;1.55;;
22486;SDS011;11410;53.046;10.512;2024-03-23T08:53:50;9.13;;;1.97;;
22486;SDS011;11410;53.046;10.512;2024-03-23T08:57:50;10.10;;;1.97;;
22486;SDS011;11410;53.046;10.512;2024-03-23T09:01:50;3.80;;;1.58;;
22486;SDS011;11410;53.046;10.512;2024-03-23T09:05:52;7.75;;;2.15;;
22486;SDS011;11410;53.046;10.512;2024-03-23T09:13:53;5.83;;;1.47;;
22486;SDS011;11410;53.046;10.512;2024-03-23T09:17:53;10.88;;;1.88;;
22486;SDS011;11410;53.046;10.512;2024-03-23T09:21:54;7.70;;;1.52;;
22486;SDS011;11410;53.046;10.512;2024-03-23T09:25:54;7.28;;;1.27;;
22486;SDS011;11410;53.046;10.512;2024-03-23T09:29:54;7.85;;;1.98;;
22486;SDS011;11410;53.046;10.512;2024-03-23T09:37:55;8.00;;;1.80;;
22486;SDS011;11410;53.046;10.512;2024-03-23T09:41:57;8.63;;;1.52;;
22486;SDS011;11410;53.046;10.512;2024-03-23T09:45:59;14.20;;;2.13;;
22486;SDS011;11410;53.046;10.512;2024-03-23T09:50:00;12.90;;;2.65;;
22486;SDS011;11410;53.046;10.512;2024-03-23T09:54:01;3.40;;;1.23;;
22486;SDS011;11410;53.046;10.512;2024-03-23T09:58:02;17.23;;;2.90;;
22486;SDS011;11410;53.046;10.512;2024-03-23T10:02:02;8.98;;;1.50;;
22486;SDS011;11410;53.046;10.512;2024-03-23T10:06:04;5.47;;;1.80;;
22486;SDS011;11410;53.046;10.512;2024-03-23T10:10:10;9.95;;;1.45;;
22486;SDS011;11410;53.046;10.512;2024-03-23T10:14:11;7.32;;;1.92;;
22486;SDS011;11410;53.046;10.512;2024-03-23T10:18:18;8.30;;;2.07;;
22486;SDS011;11410;53.046;10.512;2024-03-23T10:22:19;4.35;;;1.27;;
22486;SDS011;11410;53.046;10.512;2024-03-23T10:26:24;14.15;;;1.73;;
22486;SDS011;11410;53.046;10.512;2024-03-23T10:30:28;9.57;;;2.28;;
22486;SDS011;11410;53.046;10.512;2024-03-23T10:34:28;5.68;;;1.90;;
22486;SDS011;11410;53.046;10.512;2024-03-23T10:38:29;6.80;;;1.42;;
22486;SDS011;11410;53.046;10.512;2024-03-23T10:42:30;6.80;;;1.83;;
22486;SDS011;11410;53.046;10.512;2024-03-23T10:46:30;1.70;;;1.20;;
22486;SDS011;11410;53.046;10.512;2024-03-23T10:50:31;7.27;;;2.17;;
22486;SDS011;11410;53.046;10.512;2024-03-23T10:54:32;16.30;;;2.00;;
22486;SDS011;11410;53.046;10.512;2024-03-23T10:58:39;20.42;;;2.00;;
22486;SDS011;11410;53.046;10.512;2024-03-23T11:02:40;6.80;;;1.90;;
22486;SDS011;11410;53.046;10.512;2024-03-23T11:06:41;6.15;;;1.63;;
22486;SDS011;11410;53.046;10.512;2024-03-23T11:10:41;13.70;;;2.35;;
22486;SDS011;11410;53.046;10.512;2024-03-23T11:14:42;5.60;;;1.13;;
22486;SDS011;11410;53.046;10.512;2024-03-23T11:18:43;6.75;;;1.73;;
22486;SDS011;11410;53.046;10.512;2024-03-23T11:22:45;3.17;;;1.70;;
22486;SDS011;11410;53.046;10.512;2024-03-23T11:26:49;7.07;;;2.05;;
22486;SDS011;11410;53.046;10.512;2024-03-23T11:30:50;10.07;;;2.03;;
22486;SDS011;11410;53.046;10.512;2024-03-23T11:34:50;5.60;;;1.33;;
22486;SDS011;11410;53.046;10.512;2024-03-23T11:38:51;8.33;;;1.60;;
22486;SDS011;11410;53.046;10.512;2024-03-23T11:42:55;10.50;;;2.22;;
22486;SDS011;11410;53.046;10.512;2024-03-23T11:47:06;4.80;;;1.33;;
22486;SDS011;11410;53.046;10.512;2024-03-23T11:55:08;1.53;;;1.40;;
22486;SDS011;11410;53.046;10.512;2024-03-23T11:59:08;5.57;;;1.23;;
22486;SDS011;11410;53.046;10.512;2024-03-23T12:03:09;4.07;;;1.07;;
22486;SDS011;11410;53.046;10.512;2024-03-23T12:11:12;7.80;;;1.33;;
22486;SDS011;11410;53.046;10.512;2024-03-23T12:15:13;3.95;;;1.10;;
22486;SDS011;11410;53.046;10.512;2024-03-23T12:19:15;5.63;;;1.00;;
22486;SDS011;11410;53.046;10.512;2024-03-23T12:23:15;1.80;;;0.50;;
22486;SDS011;11410;53.046;10.512;2024-03-23T12:27:16;1.07;;;0.60;;
22486;SDS011;11410;53.046;10.512;2024-03-23T12:31:16;0.93;;;0.88;;
22486;SDS011;11410;53.046;10.512;2024-03-23T12:35:17;1.30;;;0.70;;
22486;SDS011;11410;53.046;10.512;2024-03-23T12:39:18;1.77;;;0.65;;
22486;SDS011;11410;53.046;10.512;2024-03-23T12:43:18;9.55;;;1.13;;
22486;SDS011;11410;53.046;10.512;2024-03-23T12:47:19;2.10;;;1.17;;
22486;SDS011;11410;53.046;10.512;2024-03-23T12:51:20;3.50;;;1.07;;
22486;SDS011;11410;53.046;10.512;2024-03-23T12:55:20;18.83;;;3.53;;
22486;SDS011;11410;53.046;10.512;2024-03-23T12:59:21;17.48;;;2.92;;
22486;SDS011;11410;53.046;10.512;2024-03-23T13:03:22;12.40;;;2.42;;
22486;SDS011;11410;53.046;10.512;2024-03-23T13:07:23;5.50;;;1.90;;
22486;SDS011;11410;53.046;10.512;2024-03-23T13:11:23;4.25;;;1.42;;
22486;SDS011;11410;53.046;10.512;2024-03-23T13:15:24;3.43;;;1.07;;
22486;SDS011;11410;53.046;10.512;2024-03-23T13:19:24;1.60;;;0.80;;
22486;SDS011;11410;53.046;10.512;2024-03-23T13:23:30;1.63;;;1.10;;
22486;SDS011;11410;53.046;10.512;2024-03-23T13:27:32;3.00;;;1.23;;
22486;SDS011;11410;53.046;10.512;2024-03-23T13:31:33;0.50;;;0.50;;
22486;SDS011;11410;53.046;10.512;2024-03-23T13:39:35;1.73;;;0.57;;
22486;SDS011;11410;53.046;10.512;2024-03-23T13:43:35;8.10;;;1.10;;
22486;SDS011;11410;53.046;10.512;2024-03-23T13:47:36;2.70;;;1.17;;
22486;SDS011;11410;53.046;10.512;2024-03-23T13:51:37;0.70;;;0.70;;
22486;SDS011;11410;53.046;10.512;2024-03-23T13:55:37;4.13;;;0.90;;
22486;SDS011;11410;53.046;10.512;2024-03-23T13:59:37;8.97;;;1.60;;
22486;SDS011;11410;53.046;10.512;2024-03-23T14:03:38;27.50;;;3.33;;
22486;SDS011;11410;53.046;10.512;2024-03-23T14:07:38;3.83;;;2.20;;
22486;SDS011;11410;53.046;10.512;2024-03-23T14:11:39;22.40;;;3.03;;
22486;SDS011;11410;53.046;10.512;2024-03-23T14:15:41;26.38;;;4.43;;
22486;SDS011;11410;53.046;10.512;2024-03-23T14:19:42;5.10;;;0.93;;
22486;SDS011;11410;53.046;10.512;2024-03-23T14:23:42;7.83;;;2.30;;
22486;SDS011;11410;53.046;10.512;2024-03-23T14:27:43;7.60;;;1.27;;
22486;SDS011;11410;53.046;10.512;2024-03-23T14:31:44;6.83;;;1.97;;
22486;SDS011;11410;53.046;10.512;2024-03-23T14:35:54;2.67;;;0.93;;
22486;SDS011;11410;53.046;10.512;2024-03-23T14:39:55;12.77;;;2.08;;
22486;SDS011;11410;53.046;10.512;2024-03-23T14:43:56;2.72;;;0.95;;
22486;SDS011;11410;53.046;10.512;2024-03-23T14:47:57;14.90;;;3.17;;
22486;SDS011;11410;53.046;10.512;2024-03-23T14:51:59;0.38;;;0.38;;
22486;SDS011;11410;53.046;10.512;2024-03-23T14:56:00;0.65;;;0.45;;
22486;SDS011;11410;53.046;10.512;2024-03-23T15:00:01;2.28;;;0.68;;
22486;SDS011;11410;53.046;10.512;2024-03-23T15:04:05;0.57;;;0.57;;
22486;SDS011;11410;53.046;10.512;2024-03-23T15:12:07;0.50;;;0.40;;
22486;SDS011;11410;53.046;10.512;2024-03-23T15:16:07;4.20;;;0.43;;
22486;SDS011;11410;53.046;10.512;2024-03-23T15:20:08;0.73;;;0.60;;
22486;SDS011;11410;53.046;10.512;2024-03-23T15:24:09;0.82;;;0.80;;
22486;SDS011;11410;53.046;10.512;2024-03-23T15:28:11;0.60;;;0.60;;
22486;SDS011;11410;53.046;10.512;2024-03-23T15:32:12;4.23;;;0.70;;
22486;SDS011;11410;53.046;10.512;2024-03-23T15:36:12;3.13;;;0.80;;
22486;SDS011;11410;53.046;10.512;2024-03-23T15:40:13;1.23;;;0.43;;
22486;SDS011;11410;53.046;10.512;2024-03-23T15:44:14;1.85;;;0.80;;
22486;SDS011;11410;53.046;10.512;2024-03-23T15:48:14;0.93;;;0.90;;
22486;SDS011;11410;53.046;10.512;2024-03-23T15:52:15;5.53;;;0.80;;
22486;SDS011;11410;53.046;10.512;2024-03-23T15:56:15;3.77;;;0.80;;
22486;SDS011;11410;53.046;10.512;2024-03-23T16:00:16;4.70;;;1.10;;
22486;SDS011;11410;53.046;10.512;2024-03-23T16:04:16;3.72;;;1.23;;
22486;SDS011;11410;53.046;10.512;2024-03-23T16:08:17;1.83;;;1.07;;
22486;SDS011;11410;53.046;10.512;2024-03-23T16:12:17;1.20;;;0.60;;
22486;SDS011;11410;53.046;10.512;2024-03-23T16:16:18;2.47;;;0.70;;
22486;SDS011;11410;53.046;10.512;2024-03-23T16:20:22;2.88;;;0.55;;
22486;SDS011;11410;53.046;10.512;2024-03-23T16:24:23;3.60;;;0.60;;
22486;SDS011;11410;53.046;10.512;2024-03-23T16:28:30;0.93;;;0.57;;
22486;SDS011;11410;53.046;10.512;2024-03-23T16:32:31;1.50;;;0.70;;
22486;SDS011;11410;53.046;10.512;2024-03-23T16:36:35;0.70;;;0.68;;
22486;SDS011;11410;53.046;10.512;2024-03-23T16:40:35;0.40;;;0.40;;
22486;SDS011;11410;53.046;10.512;2024-03-23T16:44:36;5.40;;;0.70;;
22486;SDS011;11410;53.046;10.512;2024-03-23T16:48:40;0.50;;;0.50;;
22486;SDS011;11410;53.046;10.512;2024-03-23T16:52:40;2.65;;;0.68;;
22486;SDS011;11410;53.046;10.512;2024-03-23T16:56:41;2.97;;;1.00;;
22486;SDS011;11410;53.046;10.512;2024-03-23T17:00:41;0.70;;;0.70;;
22486;SDS011;11410;53.046;10.512;2024-03-23T17:04:42;0.77;;;0.77;;
22486;SDS011;11410;53.046;10.512;2024-03-23T17:08:42;0.90;;;0.73;;
22486;SDS011;11410;53.046;10.512;2024-03-23T17:12:43;2.55;;;0.60;;
22486;SDS011;11410;53.046;10.512;2024-03-23T17:16:44;0.82;;;0.70;;
22486;SDS011;11410;53.046;10.512;2024-03-23T17:20:47;1.50;;;0.85;;
22486;SDS011;11410;53.046;10.512;2024-03-23T17:24:51;0.75;;;0.35;;
22486;SDS011;11410;53.046;10.512;2024-03-23T17:28:51;4.10;;;0.70;;
22486;SDS011;11410;53.046;10.512;2024-03-23T17:32:52;1.67;;;0.80;;
22486;SDS011;11410;53.046;10.512;2024-03-23T17:36:52;3.57;;;0.97;;
22486;SDS011;11410;53.046;10.512;2024-03-23T17:40:56;0.83;;;0.83;;
22486;SDS011;11410;53.046;10.512;2024-03-23T17:44:57;0.93;;;0.50;;
22486;SDS011;11410;53.046;10.512;2024-03-23T17:48:57;6.03;;;0.97;;
22486;SDS011;11410;53.046;10.512;2024-03-23T17:52:59;1.40;;;1.23;;
22486;SDS011;11410;53.046;10.512;2024-03-23T17:57:01;4.20;;;1.00;;
22486;SDS011;11410;53.046;10.512;2024-03-23T18:01:05;2.33;;;0.70;;
22486;SDS011;11410;53.046;10.512;2024-03-23T18:05:06;1.27;;;0.60;;
22486;SDS011;11410;53.046;10.512;2024-03-23T18:09:06;0.75;;;0.75;;
22486;SDS011;11410;53.046;10.512;2024-03-23T18:13:10;7.50;;;1.00;;
22486;SDS011;11410;53.046;10.512;2024-03-23T18:17:10;1.80;;;1.13;;
22486;SDS011;11410;53.046;10.512;2024-03-23T18:21:11;4.72;;;0.88;;
22486;SDS011;11410;53.046;10.512;2024-03-23T18:25:12;0.77;;;0.77;;
22486;SDS011;11410;53.046;10.512;2024-03-23T18:29:12;0.73;;;0.73;;
22486;SDS011;11410;53.046;10.512;2024-03-23T18:33:13;1.13;;;1.05;;
22486;SDS011;11410;53.046;10.512;2024-03-23T18:37:14;1.27;;;0.90;;
22486;SDS011;11410;53.046;10.512;2024-03-23T18:41:14;0.80;;;0.80;;
22486;SDS011;11410;53.046;10.512;2024-03-23T18:45:15;1.13;;;0.93;;
22486;SDS011;11410;53.046;10.512;2024-03-23T18:49:15;4.10;;;1.63;;
22486;SDS011;11410;53.046;10.512;2024-03-23T18:53:17;0.45;;;0.45;;
22486;SDS011;11410;53.046;10.512;2024-03-23T18:57:17;0.68;;;0.60;;
22486;SDS011;11410;53.046;10.512;2024-03-23T19:01:18;3.93;;;0.63;;
22486;SDS011;11410;53.046;10.512;2024-03-23T19:05:18;3.30;;;0.82;;
22486;SDS011;11410;53.046;10.512;2024-03-23T19:09:19;0.43;;;0.43;;
22486;SDS011;11410;53.046;10.512;2024-03-23T19:13:19;4.50;;;0.63;;
22486;SDS011;11410;53.046;10.512;2024-03-23T19:17:20;1.42;;;1.20;;
22486;SDS011;11410;53.046;10.512;2024-03-23T19:21:21;0.93;;;0.60;;
22486;SDS011;11410;53.046;10.512;2024-03-23T19:25:22;1.42;;;0.80;;
22486;SDS011;11410;53.046;10.512;2024-03-23T19:29:22;0.70;;;0.70;;
22486;SDS011;11410;53.046;10.512;2024-03-23T19:33:23;0.47;;;0.47;;
22486;SDS011;11410;53.046;10.512;2024-03-23T19:37:24;4.55;;;0.93;;
22486;SDS011;11410;53.046;10.512;2024-03-23T19:41:24;1.27;;;0.80;;
22486;SDS011;11410;53.046;10.512;2024-03-23T19:45:24;2.53;;;0.80;;
22486;SDS011;11410;53.046;10.512;2024-03-23T19:49:25;0.57;;;0.57;;
22486;SDS011;11410;53.046;10.512;2024-03-23T19:53:27;1.33;;;1.20;;
22486;SDS011;11410;53.046;10.512;2024-03-23T19:57:30;4.50;;;0.90;;
22486;SDS011;11410;53.046;10.512;2024-03-23T20:01:30;0.70;;;0.70;;
22486;SDS011;11410;53.046;10.512;2024-03-23T20:05:31;2.73;;;1.13;;
22486;SDS011;11410;53.046;10.512;2024-03-23T20:09:32;2.47;;;1.08;;
22486;SDS011;11410;53.046;10.512;2024-03-23T20:13:33;1.02;;;1.00;;
22486;SDS011;11410;53.046;10.512;2024-03-23T20:17:33;1.63;;;0.83;;
22486;SDS011;11410;53.046;10.512;2024-03-23T20:21:34;0.68;;;0.65;;
22486;SDS011;11410;53.046;10.512;2024-03-23T20:25:35;0.90;;;0.80;;
22486;SDS011;11410;53.046;10.512;2024-03-23T20:29:36;1.88;;;0.90;;
22486;SDS011;11410;53.046;10.512;2024-03-23T20:33:37;1.83;;;0.73;;
22486;SDS011;11410;53.046;10.512;2024-03-23T20:37:38;3.25;;;0.82;;
22486;SDS011;11410;53.046;10.512;2024-03-23T20:41:38;6.00;;;0.80;;
22486;SDS011;11410;53.046;10.512;2024-03-23T20:45:39;0.77;;;0.77;;
22486;SDS011;11410;53.046;10.512;2024-03-23T20:49:40;2.58;;;1.55;;
22486;SDS011;11410;53.046;10.512;2024-03-23T20:53:40;1.23;;;0.68;;
22486;SDS011;11410;53.046;10.512;2024-03-23T20:57:41;1.35;;;0.80;;
22486;SDS011;11410;53.046;10.512;2024-03-23T21:01:42;0.60;;;0.60;;
22486;SDS011;11410;53.046;10.512;2024-03-23T21:05:42;3.27;;;1.03;;
22486;SDS011;11410;53.046;10.512;2024-03-23T21:09:43;1.75;;;1.25;;
22486;SDS011;11410;53.046;10.512;2024-03-23T21:13:43;3.17;;;1.77;;
22486;SDS011;11410;53.046;10.512;2024-03-23T21:17:44;3.20;;;1.92;;
22486;SDS011;11410;53.046;10.512;2024-03-23T21:21:45;7.18;;;1.00;;
22486;SDS011;11410;53.046;10.512;2024-03-23T21:25:52;1.33;;;1.00;;
22486;SDS011;11410;53.046;10.512;2024-03-23T21:29:53;8.82;;;1.60;;
22486;SDS011;11410;53.046;10.512;2024-03-23T21:37:55;2.10;;;1.07;;
22486;SDS011;11410;53.046;10.512;2024-03-23T21:41:55;2.25;;;0.88;;
22486;SDS011;11410;53.046;10.512;2024-03-23T21:45:57;4.47;;;1.23;;
22486;SDS011;11410;53.046;10.512;2024-03-23T21:53:58;1.20;;;0.80;;
22486;SDS011;11410;53.046;10.512;2024-03-23T21:57:59;0.80;;;0.80;;
22486;SDS011;11410;53.046;10.512;2024-03-23T22:01:59;1.23;;;1.08;;
22486;SDS011;11410;53.046;10.512;2024-03-23T22:06:00;3.60;;;1.38;;
22486;SDS011;11410;53.046;10.512;2024-03-23T22:10:00;1.87;;;1.43;;
22486;SDS011;11410;53.046;10.512;2024-03-23T22:14:01;3.65;;;1.23;;
22486;SDS011;11410;53.046;10.512;2024-03-23T22:18:02;1.60;;;0.95;;
22486;SDS011;11410;53.046;10.512;2024-03-23T22:22:02;3.63;;;1.23;;
22486;SDS011;11410;53.046;10.512;2024-03-23T22:26:03;1.60;;;0.88;;
22486;SDS011;11410;53.046;10.512;2024-03-23T22:30:03;0.80;;;0.68;;
22486;SDS011;11410;53.046;10.512;2024-03-23T22:34:04;4.75;;;0.90;;
22486;SDS011;11410;53.046;10.512;2024-03-23T22:38:05;4.70;;;1.20;;
22486;SDS011;11410;53.046;10.512;2024-03-23T22:42:05;0.90;;;0.90;;
22486;SDS011;11410;53.046;10.512;2024-03-23T22:46:06;3.13;;;1.13;;
22486;SDS011;11410;53.046;10.512;2024-03-23T22:50:07;3.83;;;1.10;;
22486;SDS011;11410;53.046;10.512;2024-03-23T22:54:10;1.73;;;1.30;;
22486;SDS011;11410;53.046;10.512;2024-03-23T22:58:10;2.00;;;1.40;;
22486;SDS011;11410;53.046;10.512;2024-03-23T23:02:11;1.77;;;1.63;;
22486;SDS011;11410;53.046;10.512;2024-03-23T23:06:11;2.92;;;2.00;;
22486;SDS011;11410;53.046;10.512;2024-03-23T23:10:12;7.85;;;1.40;;
22486;SDS011;11410;53.046;10.512;2024-03-23T23:14:13;3.45;;;2.13;;
22486;SDS011;11410;53.046;10.512;2024-03-23T23:18:14;4.93;;;1.67;;
22486;SDS011;11410;53.046;10.512;2024-03-23T23:22:15;5.95;;;1.95;;
22486;SDS011;11410;53.046;10.512;2024-03-23T23:26:15;2.97;;;1.90;;
22486;SDS011;11410;53.046;10.512;2024-03-23T23:30:16;3.33;;;2.20;;
22486;SDS011;11410;53.046;10.512;2024-03-23T23:34:18;3.40;;;1.58;;
22486;SDS011;11410;53.046;10.512;2024-03-23T23:38:18;3.28;;;1.83;;
22486;SDS011;11410;53.046;10.512;2024-03-23T23:42:19;8.57;;;1.90;;
22486;SDS011;11410;53.046;10.512;2024-03-23T23:46:20;4.65;;;1.45;;
22486;SDS011;11410;53.046;10.512;2024-03-23T23:50:20;2.38;;;1.55;;
22486;SDS011;11410;53.046;10.512;2024-03-23T23:54:21;6.07;;;2.28;;
22486;SDS011;11410;53.046;10.512;2024-03-23T23:58:22;3.13;;;2.10;;
